sensor_id;sensor_type;location;lat;lon;timestamp;P1;durP1;ratioP1;P2;durP2;ratioP2
49514;SDS011;35415;47.870;16.058;2023-05-07T00:00:28;3.85;;;2.55;;
49514;SDS011;35415;47.870;16.058;2023-05-07T00:02:56;2.85;;;2.55;;
49514;SDS011;35415;47.870;16.058;2023-05-07T00:05:23;4.93;;;2.38;;
49514;SDS011;35415;47.870;16.058;2023-05-07T00:07:51;5.63;;;2.45;;
49514;SDS011;35415;47.870;16.058;2023-05-07T00:10:19;2.85;;;2.40;;
49514;SDS011;35415;47.870;16.058;2023-05-07T00:12:46;3.80;;;2.20;;
49514;SDS011;35415;47.870;16.058;2023-05-07T00:15:16;2.50;;;2.30;;
49514;SDS011;35415;47.870;16.058;2023-05-07T00:17:45;2.42;;;2.13;;
49514;SDS011;35415;47.870;16.058;2023-05-07T00:20:13;5.40;;;2.40;;
49514;SDS011;35415;47.870;16.058;2023-05-07T00:22:41;4.88;;;2.15;;
49514;SDS011;35415;47.870;16.058;2023-05-07T00:25:08;2.60;;;2.03;;
49514;SDS011;35415;47.870;16.058;2023-05-07T00:27:37;2.58;;;2.15;;
49514;SDS011;35415;47.870;16.058;2023-05-07T00:30:06;2.85;;;2.10;;
49514;SDS011;35415;47.870;16.058;2023-05-07T00:32:50;3.67;;;2.40;;
49514;SDS011;35415;47.870;16.058;2023-05-07T00:35:18;6.32;;;3.25;;
49514;SDS011;35415;47.870;16.058;2023-05-07T00:37:46;2.47;;;2.10;;
49514;SDS011;35415;47.870;16.058;2023-05-07T00:40:13;2.40;;;2.08;;
49514;SDS011;35415;47.870;16.058;2023-05-07T00:42:44;3.22;;;2.10;;
49514;SDS011;35415;47.870;16.058;2023-05-07T00:45:12;4.25;;;2.05;;
49514;SDS011;35415;47.870;16.058;2023-05-07T00:47:40;2.70;;;2.20;;
49514;SDS011;35415;47.870;16.058;2023-05-07T00:50:10;2.97;;;2.50;;
49514;SDS011;35415;47.870;16.058;2023-05-07T00:52:38;2.75;;;2.30;;
49514;SDS011;35415;47.870;16.058;2023-05-07T00:55:07;2.67;;;2.20;;
49514;SDS011;35415;47.870;16.058;2023-05-07T00:57:39;4.28;;;2.22;;
49514;SDS011;35415;47.870;16.058;2023-05-07T01:00:08;2.92;;;2.15;;
49514;SDS011;35415;47.870;16.058;2023-05-07T01:02:37;5.28;;;2.22;;
49514;SDS011;35415;47.870;16.058;2023-05-07T01:05:05;5.30;;;2.45;;
49514;SDS011;35415;47.870;16.058;2023-05-07T01:07:42;3.22;;;2.03;;
49514;SDS011;35415;47.870;16.058;2023-05-07T01:10:13;5.38;;;2.40;;
49514;SDS011;35415;47.870;16.058;2023-05-07T01:12:41;2.92;;;2.20;;
49514;SDS011;35415;47.870;16.058;2023-05-07T01:15:13;2.97;;;2.17;;
49514;SDS011;35415;47.870;16.058;2023-05-07T01:17:41;3.65;;;2.30;;
49514;SDS011;35415;47.870;16.058;2023-05-07T01:20:11;4.35;;;2.25;;
49514;SDS011;35415;47.870;16.058;2023-05-07T01:22:40;3.13;;;2.13;;
49514;SDS011;35415;47.870;16.058;2023-05-07T01:25:13;2.85;;;2.20;;
49514;SDS011;35415;47.870;16.058;2023-05-07T01:30:45;2.20;;;2.00;;
49514;SDS011;35415;47.870;16.058;2023-05-07T01:33:18;3.10;;;2.05;;
49514;SDS011;35415;47.870;16.058;2023-05-07T01:35:49;2.90;;;2.30;;
49514;SDS011;35415;47.870;16.058;2023-05-07T01:38:21;2.85;;;2.15;;
49514;SDS011;35415;47.870;16.058;2023-05-07T01:40:50;2.60;;;2.22;;
49514;SDS011;35415;47.870;16.058;2023-05-07T01:43:18;3.03;;;2.08;;
49514;SDS011;35415;47.870;16.058;2023-05-07T01:45:46;2.97;;;2.47;;
49514;SDS011;35415;47.870;16.058;2023-05-07T01:48:17;2.25;;;1.83;;
49514;SDS011;35415;47.870;16.058;2023-05-07T01:50:52;2.72;;;2.20;;
49514;SDS011;35415;47.870;16.058;2023-05-07T01:53:23;3.03;;;2.08;;
49514;SDS011;35415;47.870;16.058;2023-05-07T01:55:53;3.50;;;2.10;;
49514;SDS011;35415;47.870;16.058;2023-05-07T01:58:21;4.18;;;2.28;;
49514;SDS011;35415;47.870;16.058;2023-05-07T02:00:49;2.45;;;2.17;;
49514;SDS011;35415;47.870;16.058;2023-05-07T02:03:17;5.50;;;2.10;;
49514;SDS011;35415;47.870;16.058;2023-05-07T02:05:44;2.33;;;2.10;;
49514;SDS011;35415;47.870;16.058;2023-05-07T02:08:12;2.35;;;2.13;;
49514;SDS011;35415;47.870;16.058;2023-05-07T02:13:19;3.90;;;2.28;;
49514;SDS011;35415;47.870;16.058;2023-05-07T02:15:47;3.88;;;2.83;;
49514;SDS011;35415;47.870;16.058;2023-05-07T02:18:17;2.60;;;2.03;;
49514;SDS011;35415;47.870;16.058;2023-05-07T02:20:44;2.90;;;1.98;;
49514;SDS011;35415;47.870;16.058;2023-05-07T02:23:11;5.35;;;2.38;;
49514;SDS011;35415;47.870;16.058;2023-05-07T02:25:42;3.58;;;2.20;;
49514;SDS011;35415;47.870;16.058;2023-05-07T02:28:12;3.90;;;2.25;;
49514;SDS011;35415;47.870;16.058;2023-05-07T02:30:42;4.55;;;2.60;;
49514;SDS011;35415;47.870;16.058;2023-05-07T02:33:09;2.15;;;1.90;;
49514;SDS011;35415;47.870;16.058;2023-05-07T02:35:37;2.92;;;2.05;;
49514;SDS011;35415;47.870;16.058;2023-05-07T02:38:05;2.25;;;1.98;;
49514;SDS011;35415;47.870;16.058;2023-05-07T02:40:32;4.57;;;3.38;;
49514;SDS011;35415;47.870;16.058;2023-05-07T02:43:04;3.35;;;2.42;;
49514;SDS011;35415;47.870;16.058;2023-05-07T02:45:33;2.83;;;2.30;;
49514;SDS011;35415;47.870;16.058;2023-05-07T02:48:01;9.07;;;2.72;;
49514;SDS011;35415;47.870;16.058;2023-05-07T02:50:28;4.72;;;3.67;;
49514;SDS011;35415;47.870;16.058;2023-05-07T02:52:57;3.75;;;2.40;;
49514;SDS011;35415;47.870;16.058;2023-05-07T02:55:25;4.97;;;2.45;;
49514;SDS011;35415;47.870;16.058;2023-05-07T02:57:52;4.35;;;2.40;;
49514;SDS011;35415;47.870;16.058;2023-05-07T03:00:23;4.20;;;2.03;;
49514;SDS011;35415;47.870;16.058;2023-05-07T03:02:52;3.10;;;2.53;;
49514;SDS011;35415;47.870;16.058;2023-05-07T03:05:20;7.57;;;2.97;;
49514;SDS011;35415;47.870;16.058;2023-05-07T03:07:47;4.82;;;2.45;;
49514;SDS011;35415;47.870;16.058;2023-05-07T03:10:15;3.67;;;2.38;;
49514;SDS011;35415;47.870;16.058;2023-05-07T03:12:43;4.68;;;2.50;;
49514;SDS011;35415;47.870;16.058;2023-05-07T03:15:11;3.03;;;2.28;;
49514;SDS011;35415;47.870;16.058;2023-05-07T03:17:39;3.13;;;2.28;;
49514;SDS011;35415;47.870;16.058;2023-05-07T03:20:09;2.67;;;2.35;;
49514;SDS011;35415;47.870;16.058;2023-05-07T03:22:38;3.07;;;2.30;;
49514;SDS011;35415;47.870;16.058;2023-05-07T03:25:06;5.25;;;2.58;;
49514;SDS011;35415;47.870;16.058;2023-05-07T03:30:19;3.95;;;2.47;;
49514;SDS011;35415;47.870;16.058;2023-05-07T03:32:47;5.05;;;2.50;;
49514;SDS011;35415;47.870;16.058;2023-05-07T03:35:17;6.78;;;2.60;;
49514;SDS011;35415;47.870;16.058;2023-05-07T03:37:45;3.88;;;1.92;;
49514;SDS011;35415;47.870;16.058;2023-05-07T03:40:12;3.38;;;2.40;;
49514;SDS011;35415;47.870;16.058;2023-05-07T03:42:40;5.07;;;2.60;;
49514;SDS011;35415;47.870;16.058;2023-05-07T03:45:08;3.83;;;2.88;;
49514;SDS011;35415;47.870;16.058;2023-05-07T03:47:36;2.47;;;2.28;;
49514;SDS011;35415;47.870;16.058;2023-05-07T03:50:03;3.05;;;2.65;;
49514;SDS011;35415;47.870;16.058;2023-05-07T03:52:35;3.67;;;2.50;;
49514;SDS011;35415;47.870;16.058;2023-05-07T03:55:03;3.10;;;2.20;;
49514;SDS011;35415;47.870;16.058;2023-05-07T03:57:31;6.47;;;2.53;;
49514;SDS011;35415;47.870;16.058;2023-05-07T03:59:58;3.45;;;2.67;;
49514;SDS011;35415;47.870;16.058;2023-05-07T04:02:25;4.30;;;2.60;;
49514;SDS011;35415;47.870;16.058;2023-05-07T04:04:54;3.60;;;2.85;;
49514;SDS011;35415;47.870;16.058;2023-05-07T04:07:22;2.50;;;2.30;;
49514;SDS011;35415;47.870;16.058;2023-05-07T04:09:52;7.22;;;2.50;;
49514;SDS011;35415;47.870;16.058;2023-05-07T04:12:19;3.58;;;2.40;;
49514;SDS011;35415;47.870;16.058;2023-05-07T04:14:46;4.32;;;2.67;;
49514;SDS011;35415;47.870;16.058;2023-05-07T04:17:13;3.90;;;2.40;;
49514;SDS011;35415;47.870;16.058;2023-05-07T04:19:41;3.97;;;2.80;;
49514;SDS011;35415;47.870;16.058;2023-05-07T04:22:10;2.70;;;2.30;;
49514;SDS011;35415;47.870;16.058;2023-05-07T04:24:39;3.88;;;2.55;;
49514;SDS011;35415;47.870;16.058;2023-05-07T04:27:08;3.50;;;2.53;;
49514;SDS011;35415;47.870;16.058;2023-05-07T04:29:35;4.32;;;2.55;;
49514;SDS011;35415;47.870;16.058;2023-05-07T04:32:04;3.78;;;2.60;;
49514;SDS011;35415;47.870;16.058;2023-05-07T04:34:31;2.85;;;2.17;;
49514;SDS011;35415;47.870;16.058;2023-05-07T04:36:58;2.67;;;2.40;;
49514;SDS011;35415;47.870;16.058;2023-05-07T04:39:26;2.90;;;2.58;;
49514;SDS011;35415;47.870;16.058;2023-05-07T04:41:53;2.85;;;2.33;;
49514;SDS011;35415;47.870;16.058;2023-05-07T04:44:22;4.38;;;2.42;;
49514;SDS011;35415;47.870;16.058;2023-05-07T04:46:50;4.78;;;2.95;;
49514;SDS011;35415;47.870;16.058;2023-05-07T04:49:17;4.38;;;2.40;;
49514;SDS011;35415;47.870;16.058;2023-05-07T04:51:44;2.72;;;2.35;;
49514;SDS011;35415;47.870;16.058;2023-05-07T04:54:14;5.15;;;3.42;;
49514;SDS011;35415;47.870;16.058;2023-05-07T04:56:42;3.47;;;2.20;;
49514;SDS011;35415;47.870;16.058;2023-05-07T04:59:09;3.55;;;2.38;;
49514;SDS011;35415;47.870;16.058;2023-05-07T05:01:39;4.43;;;2.75;;
49514;SDS011;35415;47.870;16.058;2023-05-07T05:04:06;2.88;;;2.42;;
49514;SDS011;35415;47.870;16.058;2023-05-07T05:06:34;3.35;;;2.40;;
49514;SDS011;35415;47.870;16.058;2023-05-07T05:09:01;7.10;;;2.47;;
49514;SDS011;35415;47.870;16.058;2023-05-07T05:11:30;4.97;;;2.72;;
49514;SDS011;35415;47.870;16.058;2023-05-07T05:13:59;4.03;;;2.60;;
49514;SDS011;35415;47.870;16.058;2023-05-07T05:16:27;3.40;;;2.80;;
49514;SDS011;35415;47.870;16.058;2023-05-07T05:18:56;5.53;;;2.53;;
49514;SDS011;35415;47.870;16.058;2023-05-07T05:21:23;2.92;;;2.63;;
49514;SDS011;35415;47.870;16.058;2023-05-07T05:23:51;3.33;;;2.40;;
49514;SDS011;35415;47.870;16.058;2023-05-07T05:26:18;4.30;;;2.63;;
49514;SDS011;35415;47.870;16.058;2023-05-07T05:28:46;2.53;;;2.30;;
49514;SDS011;35415;47.870;16.058;2023-05-07T05:31:16;2.97;;;2.70;;
49514;SDS011;35415;47.870;16.058;2023-05-07T05:33:44;5.35;;;2.70;;
49514;SDS011;35415;47.870;16.058;2023-05-07T05:36:13;2.97;;;2.38;;
49514;SDS011;35415;47.870;16.058;2023-05-07T05:38:46;3.15;;;2.38;;
49514;SDS011;35415;47.870;16.058;2023-05-07T05:41:21;3.80;;;2.67;;
49514;SDS011;35415;47.870;16.058;2023-05-07T05:43:51;2.92;;;2.63;;
49514;SDS011;35415;47.870;16.058;2023-05-07T05:46:18;3.08;;;2.53;;
49514;SDS011;35415;47.870;16.058;2023-05-07T05:48:46;3.38;;;2.65;;
49514;SDS011;35415;47.870;16.058;2023-05-07T05:51:15;3.97;;;2.30;;
49514;SDS011;35415;47.870;16.058;2023-05-07T05:53:49;2.45;;;2.17;;
49514;SDS011;35415;47.870;16.058;2023-05-07T05:56:16;2.70;;;2.25;;
49514;SDS011;35415;47.870;16.058;2023-05-07T06:01:50;2.95;;;2.22;;
49514;SDS011;35415;47.870;16.058;2023-05-07T06:04:23;3.28;;;2.42;;
49514;SDS011;35415;47.870;16.058;2023-05-07T06:06:58;2.72;;;2.25;;
49514;SDS011;35415;47.870;16.058;2023-05-07T06:09:37;3.83;;;2.60;;
49514;SDS011;35415;47.870;16.058;2023-05-07T06:12:04;8.65;;;2.80;;
49514;SDS011;35415;47.870;16.058;2023-05-07T06:14:37;3.20;;;2.28;;
49514;SDS011;35415;47.870;16.058;2023-05-07T06:17:06;3.95;;;2.30;;
49514;SDS011;35415;47.870;16.058;2023-05-07T06:19:36;5.93;;;2.63;;
49514;SDS011;35415;47.870;16.058;2023-05-07T06:22:05;3.80;;;2.42;;
49514;SDS011;35415;47.870;16.058;2023-05-07T06:24:33;7.70;;;2.58;;
49514;SDS011;35415;47.870;16.058;2023-05-07T06:27:00;5.20;;;2.60;;
49514;SDS011;35415;47.870;16.058;2023-05-07T06:32:28;6.30;;;2.85;;
49514;SDS011;35415;47.870;16.058;2023-05-07T06:34:56;6.18;;;3.75;;
49514;SDS011;35415;47.870;16.058;2023-05-07T06:37:25;6.18;;;4.32;;
49514;SDS011;35415;47.870;16.058;2023-05-07T06:39:53;4.00;;;3.60;;
49514;SDS011;35415;47.870;16.058;2023-05-07T06:42:20;5.63;;;3.83;;
49514;SDS011;35415;47.870;16.058;2023-05-07T06:44:48;4.63;;;3.63;;
49514;SDS011;35415;47.870;16.058;2023-05-07T06:47:15;5.60;;;3.95;;
49514;SDS011;35415;47.870;16.058;2023-05-07T06:49:42;9.23;;;5.45;;
49514;SDS011;35415;47.870;16.058;2023-05-07T06:52:10;9.18;;;6.18;;
49514;SDS011;35415;47.870;16.058;2023-05-07T06:54:42;7.18;;;5.50;;
49514;SDS011;35415;47.870;16.058;2023-05-07T06:57:09;7.80;;;5.30;;
49514;SDS011;35415;47.870;16.058;2023-05-07T06:59:37;7.78;;;5.40;;
49514;SDS011;35415;47.870;16.058;2023-05-07T07:02:04;7.22;;;5.90;;
49514;SDS011;35415;47.870;16.058;2023-05-07T07:04:31;9.10;;;6.07;;
49514;SDS011;35415;47.870;16.058;2023-05-07T07:06:59;7.47;;;5.05;;
49514;SDS011;35415;47.870;16.058;2023-05-07T07:09:26;7.18;;;5.32;;
49514;SDS011;35415;47.870;16.058;2023-05-07T07:11:55;9.23;;;5.72;;
49514;SDS011;35415;47.870;16.058;2023-05-07T07:14:22;7.43;;;5.57;;
49514;SDS011;35415;47.870;16.058;2023-05-07T07:16:52;6.35;;;5.20;;
49514;SDS011;35415;47.870;16.058;2023-05-07T07:21:53;6.70;;;5.53;;
49514;SDS011;35415;47.870;16.058;2023-05-07T07:24:26;6.57;;;4.85;;
49514;SDS011;35415;47.870;16.058;2023-05-07T07:29:40;8.02;;;4.70;;
49514;SDS011;35415;47.870;16.058;2023-05-07T07:32:08;4.85;;;4.22;;
49514;SDS011;35415;47.870;16.058;2023-05-07T07:34:35;6.65;;;5.28;;
49514;SDS011;35415;47.870;16.058;2023-05-07T07:37:03;9.32;;;4.63;;
49514;SDS011;35415;47.870;16.058;2023-05-07T07:39:34;6.00;;;4.57;;
49514;SDS011;35415;47.870;16.058;2023-05-07T07:42:03;7.45;;;4.80;;
49514;SDS011;35415;47.870;16.058;2023-05-07T07:44:32;6.22;;;5.05;;
49514;SDS011;35415;47.870;16.058;2023-05-07T07:49:34;7.90;;;5.15;;
49514;SDS011;35415;47.870;16.058;2023-05-07T07:52:06;7.47;;;5.13;;
49514;SDS011;35415;47.870;16.058;2023-05-07T07:54:47;7.85;;;5.13;;
49514;SDS011;35415;47.870;16.058;2023-05-07T07:57:21;8.68;;;5.57;;
49514;SDS011;35415;47.870;16.058;2023-05-07T07:59:52;6.18;;;5.10;;
49514;SDS011;35415;47.870;16.058;2023-05-07T08:02:19;7.80;;;4.93;;
49514;SDS011;35415;47.870;16.058;2023-05-07T08:04:51;9.00;;;5.60;;
49514;SDS011;35415;47.870;16.058;2023-05-07T08:07:37;7.07;;;5.00;;
49514;SDS011;35415;47.870;16.058;2023-05-07T08:10:07;5.88;;;4.82;;
49514;SDS011;35415;47.870;16.058;2023-05-07T08:12:35;5.50;;;4.88;;
49514;SDS011;35415;47.870;16.058;2023-05-07T08:15:07;7.72;;;4.88;;
49514;SDS011;35415;47.870;16.058;2023-05-07T08:17:36;7.43;;;5.05;;
49514;SDS011;35415;47.870;16.058;2023-05-07T08:20:04;8.43;;;5.20;;
49514;SDS011;35415;47.870;16.058;2023-05-07T08:22:34;6.57;;;5.30;;
49514;SDS011;35415;47.870;16.058;2023-05-07T08:25:01;7.63;;;6.05;;
49514;SDS011;35415;47.870;16.058;2023-05-07T08:27:29;7.53;;;4.80;;
49514;SDS011;35415;47.870;16.058;2023-05-07T08:29:56;7.07;;;5.13;;
49514;SDS011;35415;47.870;16.058;2023-05-07T08:32:25;5.70;;;4.90;;
49514;SDS011;35415;47.870;16.058;2023-05-07T08:34:55;6.13;;;4.95;;
49514;SDS011;35415;47.870;16.058;2023-05-07T08:37:22;7.72;;;5.20;;
49514;SDS011;35415;47.870;16.058;2023-05-07T08:39:49;7.93;;;4.95;;
49514;SDS011;35415;47.870;16.058;2023-05-07T08:42:17;6.43;;;4.75;;
49514;SDS011;35415;47.870;16.058;2023-05-07T08:44:45;7.68;;;4.78;;
49514;SDS011;35415;47.870;16.058;2023-05-07T08:47:13;8.10;;;5.40;;
49514;SDS011;35415;47.870;16.058;2023-05-07T08:49:48;6.38;;;5.13;;
49514;SDS011;35415;47.870;16.058;2023-05-07T08:52:15;6.45;;;4.72;;
49514;SDS011;35415;47.870;16.058;2023-05-07T08:54:53;6.07;;;5.10;;
49514;SDS011;35415;47.870;16.058;2023-05-07T09:00:47;7.18;;;4.72;;
49514;SDS011;35415;47.870;16.058;2023-05-07T09:03:14;6.75;;;4.70;;
49514;SDS011;35415;47.870;16.058;2023-05-07T09:05:44;5.03;;;4.20;;
49514;SDS011;35415;47.870;16.058;2023-05-07T09:08:14;6.05;;;5.07;;
49514;SDS011;35415;47.870;16.058;2023-05-07T09:10:42;5.47;;;4.65;;
49514;SDS011;35415;47.870;16.058;2023-05-07T09:13:11;5.10;;;4.47;;
49514;SDS011;35415;47.870;16.058;2023-05-07T09:15:40;8.30;;;4.35;;
49514;SDS011;35415;47.870;16.058;2023-05-07T09:18:07;8.13;;;5.30;;
49514;SDS011;35415;47.870;16.058;2023-05-07T09:20:38;10.35;;;4.68;;
49514;SDS011;35415;47.870;16.058;2023-05-07T09:23:09;7.67;;;4.93;;
49514;SDS011;35415;47.870;16.058;2023-05-07T09:25:39;6.10;;;5.13;;
49514;SDS011;35415;47.870;16.058;2023-05-07T09:36:43;5.93;;;4.45;;
49514;SDS011;35415;47.870;16.058;2023-05-07T09:39:14;4.68;;;4.10;;
49514;SDS011;35415;47.870;16.058;2023-05-07T09:41:43;4.95;;;4.35;;
49514;SDS011;35415;47.870;16.058;2023-05-07T09:44:11;6.10;;;4.57;;
49514;SDS011;35415;47.870;16.058;2023-05-07T09:46:39;6.00;;;4.25;;
49514;SDS011;35415;47.870;16.058;2023-05-07T09:49:11;7.07;;;4.22;;
49514;SDS011;35415;47.870;16.058;2023-05-07T09:51:48;5.18;;;3.90;;
49514;SDS011;35415;47.870;16.058;2023-05-07T09:54:19;5.88;;;3.78;;
49514;SDS011;35415;47.870;16.058;2023-05-07T09:56:47;6.03;;;3.75;;
49514;SDS011;35415;47.870;16.058;2023-05-07T09:59:16;4.18;;;3.67;;
49514;SDS011;35415;47.870;16.058;2023-05-07T10:01:44;5.90;;;3.97;;
49514;SDS011;35415;47.870;16.058;2023-05-07T10:04:15;6.68;;;4.70;;
49514;SDS011;35415;47.870;16.058;2023-05-07T10:06:45;6.13;;;5.07;;
49514;SDS011;35415;47.870;16.058;2023-05-07T10:09:13;6.63;;;5.47;;
49514;SDS011;35415;47.870;16.058;2023-05-07T10:11:44;6.93;;;6.20;;
49514;SDS011;35415;47.870;16.058;2023-05-07T10:14:15;7.53;;;6.35;;
49514;SDS011;35415;47.870;16.058;2023-05-07T10:16:42;7.95;;;6.22;;
49514;SDS011;35415;47.870;16.058;2023-05-07T10:19:10;7.75;;;6.38;;
49514;SDS011;35415;47.870;16.058;2023-05-07T10:21:44;10.15;;;6.20;;
49514;SDS011;35415;47.870;16.058;2023-05-07T10:24:18;7.75;;;6.20;;
49514;SDS011;35415;47.870;16.058;2023-05-07T10:26:52;8.48;;;6.55;;
49514;SDS011;35415;47.870;16.058;2023-05-07T16:01:27;6.93;;;4.22;;
49514;SDS011;35415;47.870;16.058;2023-05-07T16:03:54;5.55;;;4.70;;
49514;SDS011;35415;47.870;16.058;2023-05-07T16:06:22;5.25;;;4.20;;
49514;SDS011;35415;47.870;16.058;2023-05-07T16:08:51;6.72;;;4.50;;
49514;SDS011;35415;47.870;16.058;2023-05-07T16:11:18;8.60;;;5.20;;
49514;SDS011;35415;47.870;16.058;2023-05-07T16:13:48;6.00;;;4.30;;
49514;SDS011;35415;47.870;16.058;2023-05-07T16:16:15;5.85;;;4.22;;
49514;SDS011;35415;47.870;16.058;2023-05-07T16:18:45;4.65;;;3.55;;
49514;SDS011;35415;47.870;16.058;2023-05-07T16:21:13;5.82;;;4.00;;
49514;SDS011;35415;47.870;16.058;2023-05-07T16:23:42;3.97;;;3.08;;
49514;SDS011;35415;47.870;16.058;2023-05-07T16:26:09;8.98;;;4.05;;
49514;SDS011;35415;47.870;16.058;2023-05-07T16:28:40;4.07;;;3.40;;
49514;SDS011;35415;47.870;16.058;2023-05-07T16:31:18;3.80;;;3.05;;
49514;SDS011;35415;47.870;16.058;2023-05-07T16:33:47;3.42;;;3.13;;
49514;SDS011;35415;47.870;16.058;2023-05-07T16:36:14;3.85;;;2.78;;
49514;SDS011;35415;47.870;16.058;2023-05-07T16:38:41;3.35;;;2.83;;
49514;SDS011;35415;47.870;16.058;2023-05-07T16:41:09;3.72;;;3.10;;
49514;SDS011;35415;47.870;16.058;2023-05-07T16:43:37;3.33;;;2.88;;
49514;SDS011;35415;47.870;16.058;2023-05-07T16:46:05;3.35;;;3.00;;
49514;SDS011;35415;47.870;16.058;2023-05-07T16:48:32;3.75;;;3.22;;
49514;SDS011;35415;47.870;16.058;2023-05-07T16:51:02;4.50;;;3.65;;
49514;SDS011;35415;47.870;16.058;2023-05-07T16:53:31;5.10;;;3.10;;
49514;SDS011;35415;47.870;16.058;2023-05-07T16:56:03;2.85;;;2.55;;
49514;SDS011;35415;47.870;16.058;2023-05-07T17:01:22;3.45;;;2.42;;
49514;SDS011;35415;47.870;16.058;2023-05-07T17:03:50;3.67;;;2.75;;
49514;SDS011;35415;47.870;16.058;2023-05-07T17:06:21;3.63;;;2.92;;
49514;SDS011;35415;47.870;16.058;2023-05-07T17:08:48;3.38;;;2.75;;
49514;SDS011;35415;47.870;16.058;2023-05-07T17:11:15;3.55;;;2.70;;
49514;SDS011;35415;47.870;16.058;2023-05-07T17:13:45;3.70;;;2.70;;
49514;SDS011;35415;47.870;16.058;2023-05-07T17:16:15;3.35;;;2.40;;
49514;SDS011;35415;47.870;16.058;2023-05-07T17:18:42;6.53;;;3.80;;
49514;SDS011;35415;47.870;16.058;2023-05-07T17:21:09;4.13;;;3.13;;
49514;SDS011;35415;47.870;16.058;2023-05-07T17:23:38;4.35;;;3.05;;
49514;SDS011;35415;47.870;16.058;2023-05-07T17:26:11;3.70;;;3.13;;
49514;SDS011;35415;47.870;16.058;2023-05-07T17:28:39;3.00;;;2.40;;
49514;SDS011;35415;47.870;16.058;2023-05-07T17:31:06;4.50;;;2.80;;
49514;SDS011;35415;47.870;16.058;2023-05-07T17:33:33;3.42;;;2.45;;
49514;SDS011;35415;47.870;16.058;2023-05-07T17:36:01;3.95;;;3.08;;
49514;SDS011;35415;47.870;16.058;2023-05-07T17:38:28;4.00;;;2.78;;
49514;SDS011;35415;47.870;16.058;2023-05-07T17:40:58;2.92;;;2.60;;
49514;SDS011;35415;47.870;16.058;2023-05-07T17:43:26;4.05;;;3.08;;
49514;SDS011;35415;47.870;16.058;2023-05-07T17:45:53;3.85;;;3.10;;
49514;SDS011;35415;47.870;16.058;2023-05-07T17:48:20;4.85;;;3.42;;
49514;SDS011;35415;47.870;16.058;2023-05-07T17:50:47;6.75;;;3.28;;
49514;SDS011;35415;47.870;16.058;2023-05-07T17:53:15;5.18;;;2.92;;
49514;SDS011;35415;47.870;16.058;2023-05-07T17:55:42;3.05;;;2.72;;
49514;SDS011;35415;47.870;16.058;2023-05-07T17:58:12;3.88;;;3.03;;
49514;SDS011;35415;47.870;16.058;2023-05-07T18:00:41;5.13;;;3.63;;
49514;SDS011;35415;47.870;16.058;2023-05-07T18:03:09;3.90;;;3.15;;
49514;SDS011;35415;47.870;16.058;2023-05-07T18:05:36;7.55;;;4.00;;
49514;SDS011;35415;47.870;16.058;2023-05-07T18:08:06;13.68;;;4.38;;
49514;SDS011;35415;47.870;16.058;2023-05-07T18:10:41;7.85;;;3.95;;
49514;SDS011;35415;47.870;16.058;2023-05-07T18:13:08;5.55;;;4.60;;
49514;SDS011;35415;47.870;16.058;2023-05-07T18:15:37;8.88;;;5.20;;
49514;SDS011;35415;47.870;16.058;2023-05-07T18:18:04;5.28;;;3.88;;
49514;SDS011;35415;47.870;16.058;2023-05-07T18:20:32;4.70;;;3.92;;
49514;SDS011;35415;47.870;16.058;2023-05-07T18:22:59;5.22;;;4.68;;
49514;SDS011;35415;47.870;16.058;2023-05-07T18:25:26;5.22;;;4.57;;
49514;SDS011;35415;47.870;16.058;2023-05-07T18:27:53;5.50;;;4.63;;
49514;SDS011;35415;47.870;16.058;2023-05-07T18:30:20;6.85;;;4.20;;
49514;SDS011;35415;47.870;16.058;2023-05-07T18:32:51;5.68;;;5.00;;
49514;SDS011;35415;47.870;16.058;2023-05-07T18:35:19;4.20;;;3.58;;
49514;SDS011;35415;47.870;16.058;2023-05-07T18:37:46;4.18;;;3.75;;
49514;SDS011;35415;47.870;16.058;2023-05-07T18:40:13;5.00;;;4.00;;
49514;SDS011;35415;47.870;16.058;2023-05-07T18:42:40;5.07;;;4.57;;
49514;SDS011;35415;47.870;16.058;2023-05-07T18:45:08;3.72;;;3.33;;
49514;SDS011;35415;47.870;16.058;2023-05-07T18:47:36;3.90;;;3.50;;
49514;SDS011;35415;47.870;16.058;2023-05-07T18:50:05;6.30;;;3.80;;
49514;SDS011;35415;47.870;16.058;2023-05-07T18:52:32;4.82;;;4.10;;
49514;SDS011;35415;47.870;16.058;2023-05-07T18:54:59;5.03;;;4.43;;
49514;SDS011;35415;47.870;16.058;2023-05-07T18:57:26;5.70;;;3.70;;
49514;SDS011;35415;47.870;16.058;2023-05-07T18:59:54;4.63;;;3.78;;
49514;SDS011;35415;47.870;16.058;2023-05-07T19:02:21;4.75;;;3.40;;
49514;SDS011;35415;47.870;16.058;2023-05-07T19:04:48;4.90;;;3.33;;
49514;SDS011;35415;47.870;16.058;2023-05-07T19:07:18;4.35;;;3.42;;
49514;SDS011;35415;47.870;16.058;2023-05-07T19:09:46;6.72;;;3.97;;
49514;SDS011;35415;47.870;16.058;2023-05-07T19:12:13;4.70;;;4.18;;
49514;SDS011;35415;47.870;16.058;2023-05-07T19:14:41;4.55;;;3.05;;
49514;SDS011;35415;47.870;16.058;2023-05-07T19:17:10;6.30;;;4.47;;
49514;SDS011;35415;47.870;16.058;2023-05-07T19:19:40;4.57;;;3.75;;
49514;SDS011;35415;47.870;16.058;2023-05-07T19:22:08;5.63;;;4.10;;
49514;SDS011;35415;47.870;16.058;2023-05-07T19:24:37;5.72;;;4.20;;
49514;SDS011;35415;47.870;16.058;2023-05-07T19:27:05;5.47;;;4.20;;
49514;SDS011;35415;47.870;16.058;2023-05-07T19:29:32;6.28;;;4.35;;
49514;SDS011;35415;47.870;16.058;2023-05-07T19:31:59;4.75;;;4.20;;
49514;SDS011;35415;47.870;16.058;2023-05-07T19:34:27;5.45;;;3.65;;
49514;SDS011;35415;47.870;16.058;2023-05-07T19:36:55;6.20;;;4.28;;
49514;SDS011;35415;47.870;16.058;2023-05-07T19:39:25;5.03;;;3.75;;
49514;SDS011;35415;47.870;16.058;2023-05-07T19:41:54;4.43;;;3.72;;
49514;SDS011;35415;47.870;16.058;2023-05-07T19:44:21;4.43;;;4.03;;
49514;SDS011;35415;47.870;16.058;2023-05-07T19:46:49;5.57;;;3.88;;
49514;SDS011;35415;47.870;16.058;2023-05-07T19:49:16;3.83;;;3.45;;
49514;SDS011;35415;47.870;16.058;2023-05-07T19:51:43;7.85;;;3.88;;
49514;SDS011;35415;47.870;16.058;2023-05-07T19:54:11;5.40;;;3.75;;
49514;SDS011;35415;47.870;16.058;2023-05-07T19:56:38;5.85;;;3.47;;
49514;SDS011;35415;47.870;16.058;2023-05-07T19:59:10;4.07;;;3.67;;
49514;SDS011;35415;47.870;16.058;2023-05-07T20:01:37;4.43;;;3.80;;
49514;SDS011;35415;47.870;16.058;2023-05-07T20:04:04;6.03;;;3.72;;
49514;SDS011;35415;47.870;16.058;2023-05-07T20:06:35;4.35;;;3.95;;
49514;SDS011;35415;47.870;16.058;2023-05-07T20:09:02;5.53;;;4.35;;
49514;SDS011;35415;47.870;16.058;2023-05-07T20:11:34;5.30;;;4.28;;
49514;SDS011;35415;47.870;16.058;2023-05-07T20:14:01;9.18;;;4.70;;
49514;SDS011;35415;47.870;16.058;2023-05-07T20:16:31;4.45;;;3.80;;
49514;SDS011;35415;47.870;16.058;2023-05-07T20:18:59;6.35;;;4.10;;
49514;SDS011;35415;47.870;16.058;2023-05-07T20:21:26;6.45;;;4.00;;
49514;SDS011;35415;47.870;16.058;2023-05-07T20:23:54;6.10;;;4.57;;
49514;SDS011;35415;47.870;16.058;2023-05-07T20:26:22;4.35;;;3.95;;
49514;SDS011;35415;47.870;16.058;2023-05-07T20:28:50;5.25;;;3.78;;
49514;SDS011;35415;47.870;16.058;2023-05-07T20:31:18;4.18;;;3.65;;
49514;SDS011;35415;47.870;16.058;2023-05-07T20:33:47;4.72;;;3.88;;
49514;SDS011;35415;47.870;16.058;2023-05-07T20:36:15;7.30;;;4.05;;
49514;SDS011;35415;47.870;16.058;2023-05-07T20:38:42;4.38;;;3.85;;
49514;SDS011;35415;47.870;16.058;2023-05-07T20:41:10;4.10;;;3.50;;
49514;SDS011;35415;47.870;16.058;2023-05-07T20:43:38;4.22;;;3.67;;
49514;SDS011;35415;47.870;16.058;2023-05-07T20:46:06;4.90;;;4.10;;
49514;SDS011;35415;47.870;16.058;2023-05-07T20:48:33;6.25;;;4.63;;
49514;SDS011;35415;47.870;16.058;2023-05-07T20:51:02;5.50;;;4.47;;